sensor_id;sensor_type;location;lat;lon;timestamp;pressure;altitude;pressure_sealevel;temperature
4421;BMP180;11824;51.178;13.546;2022-08-21T00:02:20;100206.00;;;20.40
4421;BMP180;11824;51.178;13.546;2022-08-21T00:04:50;100208.00;;;20.40
4421;BMP180;11824;51.178;13.546;2022-08-21T00:07:24;100205.00;;;20.30
4421;BMP180;11824;51.178;13.546;2022-08-21T00:09:53;100202.00;;;20.30
4421;BMP180;11824;51.178;13.546;2022-08-21T00:12:24;100211.00;;;20.30
4421;BMP180;11824;51.178;13.546;2022-08-21T00:14:53;100210.00;;;20.20
4421;BMP180;11824;51.178;13.546;2022-08-21T00:17:24;100203.00;;;20.20
4421;BMP180;11824;51.178;13.546;2022-08-21T00:19:53;100208.00;;;20.20
4421;BMP180;11824;51.178;13.546;2022-08-21T00:22:21;100199.00;;;20.20
4421;BMP180;11824;51.178;13.546;2022-08-21T00:24:50;100203.00;;;20.20
4421;BMP180;11824;51.178;13.546;2022-08-21T00:27:18;100204.00;;;20.20
4421;BMP180;11824;51.178;13.546;2022-08-21T00:29:48;100200.00;;;20.10
4421;BMP180;11824;51.178;13.546;2022-08-21T00:32:20;100202.00;;;20.20
4421;BMP180;11824;51.178;13.546;2022-08-21T00:34:49;100207.00;;;20.10
4421;BMP180;11824;51.178;13.546;2022-08-21T00:37:19;100208.00;;;20.20
4421;BMP180;11824;51.178;13.546;2022-08-21T00:39:48;100206.00;;;20.20
4421;BMP180;11824;51.178;13.546;2022-08-21T00:42:17;100206.00;;;20.20
4421;BMP180;11824;51.178;13.546;2022-08-21T00:44:50;100210.00;;;20.20
4421;BMP180;11824;51.178;13.546;2022-08-21T00:47:19;100210.00;;;20.20
4421;BMP180;11824;51.178;13.546;2022-08-21T00:49:48;100208.00;;;20.20
4421;BMP180;11824;51.178;13.546;2022-08-21T00:52:19;100207.00;;;20.20
4421;BMP180;11824;51.178;13.546;2022-08-21T00:54:49;100207.00;;;20.20
4421;BMP180;11824;51.178;13.546;2022-08-21T00:57:22;100211.00;;;20.10
4421;BMP180;11824;51.178;13.546;2022-08-21T00:59:58;100219.00;;;20.10
4421;BMP180;11824;51.178;13.546;2022-08-21T01:02:27;100215.00;;;20.00
4421;BMP180;11824;51.178;13.546;2022-08-21T01:04:57;100218.00;;;20.00
4421;BMP180;11824;51.178;13.546;2022-08-21T01:07:26;100213.00;;;19.90
4421;BMP180;11824;51.178;13.546;2022-08-21T01:09:54;100208.00;;;19.90
4421;BMP180;11824;51.178;13.546;2022-08-21T01:12:24;100215.00;;;19.80
4421;BMP180;11824;51.178;13.546;2022-08-21T01:14:55;100212.00;;;19.80
4421;BMP180;11824;51.178;13.546;2022-08-21T01:17:25;100207.00;;;19.70
4421;BMP180;11824;51.178;13.546;2022-08-21T01:19:58;100217.00;;;19.70
4421;BMP180;11824;51.178;13.546;2022-08-21T01:22:28;100217.00;;;19.60
4421;BMP180;11824;51.178;13.546;2022-08-21T01:24:57;100210.00;;;19.60
4421;BMP180;11824;51.178;13.546;2022-08-21T01:27:26;100210.00;;;19.60
4421;BMP180;11824;51.178;13.546;2022-08-21T01:29:57;100214.00;;;19.60
4421;BMP180;11824;51.178;13.546;2022-08-21T01:32:27;100210.00;;;19.60
4421;BMP180;11824;51.178;13.546;2022-08-21T01:34:55;100209.00;;;19.60
4421;BMP180;11824;51.178;13.546;2022-08-21T01:37:24;100212.00;;;19.50
4421;BMP180;11824;51.178;13.546;2022-08-21T01:39:54;100218.00;;;19.50
4421;BMP180;11824;51.178;13.546;2022-08-21T01:42:23;100215.00;;;19.50
4421;BMP180;11824;51.178;13.546;2022-08-21T01:44:52;100217.00;;;19.50
4421;BMP180;11824;51.178;13.546;2022-08-21T01:47:23;100215.00;;;19.50
4421;BMP180;11824;51.178;13.546;2022-08-21T01:49:52;100218.00;;;19.50
4421;BMP180;11824;51.178;13.546;2022-08-21T01:52:21;100218.00;;;19.50
4421;BMP180;11824;51.178;13.546;2022-08-21T01:54:49;100220.00;;;19.50
4421;BMP180;11824;51.178;13.546;2022-08-21T01:57:23;100216.00;;;19.50
4421;BMP180;11824;51.178;13.546;2022-08-21T01:59:53;100218.00;;;19.50
4421;BMP180;11824;51.178;13.546;2022-08-21T02:02:21;100210.00;;;19.50
4421;BMP180;11824;51.178;13.546;2022-08-21T02:04:50;100218.00;;;19.50
4421;BMP180;11824;51.178;13.546;2022-08-21T02:07:19;100212.00;;;19.50
4421;BMP180;11824;51.178;13.546;2022-08-21T02:09:48;100209.00;;;19.60
4421;BMP180;11824;51.178;13.546;2022-08-21T02:12:17;100201.00;;;19.60
4421;BMP180;11824;51.178;13.546;2022-08-21T02:14:47;100200.00;;;19.60
4421;BMP180;11824;51.178;13.546;2022-08-21T02:17:15;100199.00;;;19.60
4421;BMP180;11824;51.178;13.546;2022-08-21T02:19:44;100205.00;;;19.60
4421;BMP180;11824;51.178;13.546;2022-08-21T02:22:13;100200.00;;;19.60
4421;BMP180;11824;51.178;13.546;2022-08-21T02:24:41;100209.00;;;19.60
4421;BMP180;11824;51.178;13.546;2022-08-21T02:27:21;100198.00;;;19.60
4421;BMP180;11824;51.178;13.546;2022-08-21T02:29:55;100203.00;;;19.60
4421;BMP180;11824;51.178;13.546;2022-08-21T02:32:24;100196.00;;;19.60
4421;BMP180;11824;51.178;13.546;2022-08-21T02:34:53;100199.00;;;19.70
4421;BMP180;11824;51.178;13.546;2022-08-21T02:37:22;100204.00;;;19.70
4421;BMP180;11824;51.178;13.546;2022-08-21T02:39:51;100192.00;;;19.70
4421;BMP180;11824;51.178;13.546;2022-08-21T02:42:20;100189.00;;;19.70
4421;BMP180;11824;51.178;13.546;2022-08-21T02:44:48;100178.00;;;19.70
4421;BMP180;11824;51.178;13.546;2022-08-21T02:47:18;100188.00;;;19.70
4421;BMP180;11824;51.178;13.546;2022-08-21T02:49:47;100178.00;;;19.70
4421;BMP180;11824;51.178;13.546;2022-08-21T02:52:16;100190.00;;;19.70
4421;BMP180;11824;51.178;13.546;2022-08-21T02:54:44;100190.00;;;19.80
4421;BMP180;11824;51.178;13.546;2022-08-21T02:57:13;100178.00;;;19.80
4421;BMP180;11824;51.178;13.546;2022-08-21T02:59:42;100190.00;;;19.80
4421;BMP180;11824;51.178;13.546;2022-08-21T03:02:11;100185.00;;;19.80
4421;BMP180;11824;51.178;13.546;2022-08-21T03:04:41;100187.00;;;19.80
4421;BMP180;11824;51.178;13.546;2022-08-21T03:07:13;100180.00;;;19.80
4421;BMP180;11824;51.178;13.546;2022-08-21T03:09:42;100182.00;;;19.80
4421;BMP180;11824;51.178;13.546;2022-08-21T03:12:22;100188.00;;;19.80
4421;BMP180;11824;51.178;13.546;2022-08-21T03:14:56;100191.00;;;19.80
4421;BMP180;11824;51.178;13.546;2022-08-21T03:17:26;100195.00;;;19.80
4421;BMP180;11824;51.178;13.546;2022-08-21T03:19:58;100198.00;;;19.80
4421;BMP180;11824;51.178;13.546;2022-08-21T03:22:27;100190.00;;;19.80
4421;BMP180;11824;51.178;13.546;2022-08-21T03:24:57;100194.00;;;19.80
4421;BMP180;11824;51.178;13.546;2022-08-21T03:27:27;100203.00;;;19.80
4421;BMP180;11824;51.178;13.546;2022-08-21T03:29:58;100196.00;;;19.80
4421;BMP180;11824;51.178;13.546;2022-08-21T03:32:28;100192.00;;;19.80
4421;BMP180;11824;51.178;13.546;2022-08-21T03:35:00;100195.00;;;19.80
4421;BMP180;11824;51.178;13.546;2022-08-21T03:37:29;100197.00;;;19.80
4421;BMP180;11824;51.178;13.546;2022-08-21T03:39:58;100212.00;;;19.80
4421;BMP180;11824;51.178;13.546;2022-08-21T03:42:27;100206.00;;;19.80
4421;BMP180;11824;51.178;13.546;2022-08-21T03:44:57;100210.00;;;19.80
4421;BMP180;11824;51.178;13.546;2022-08-21T03:47:27;100206.00;;;19.80
4421;BMP180;11824;51.178;13.546;2022-08-21T03:49:56;100193.00;;;19.80
4421;BMP180;11824;51.178;13.546;2022-08-21T03:52:28;100197.00;;;19.80
4421;BMP180;11824;51.178;13.546;2022-08-21T03:54:57;100198.00;;;19.80
4421;BMP180;11824;51.178;13.546;2022-08-21T03:57:27;100203.00;;;19.80
4421;BMP180;11824;51.178;13.546;2022-08-21T03:59:57;100204.00;;;19.80
4421;BMP180;11824;51.178;13.546;2022-08-21T04:02:26;100209.00;;;19.70
4421;BMP180;11824;51.178;13.546;2022-08-21T04:04:55;100211.00;;;19.70
4421;BMP180;11824;51.178;13.546;2022-08-21T04:07:26;100211.00;;;19.70
4421;BMP180;11824;51.178;13.546;2022-08-21T04:09:55;100210.00;;;19.70
4421;BMP180;11824;51.178;13.546;2022-08-21T04:12:25;100210.00;;;19.70
4421;BMP180;11824;51.178;13.546;2022-08-21T04:14:55;100215.00;;;19.70
4421;BMP180;11824;51.178;13.546;2022-08-21T04:17:24;100213.00;;;19.70
4421;BMP180;11824;51.178;13.546;2022-08-21T04:19:54;100220.00;;;19.70
4421;BMP180;11824;51.178;13.546;2022-08-21T04:22:23;100225.00;;;19.70
4421;BMP180;11824;51.178;13.546;2022-08-21T04:24:54;100229.00;;;19.70
4421;BMP180;11824;51.178;13.546;2022-08-21T04:27:25;100219.00;;;19.70
4421;BMP180;11824;51.178;13.546;2022-08-21T04:29:54;100221.00;;;19.70
4421;BMP180;11824;51.178;13.546;2022-08-21T04:32:24;100216.00;;;19.70
4421;BMP180;11824;51.178;13.546;2022-08-21T04:34:59;100220.00;;;19.80
4421;BMP180;11824;51.178;13.546;2022-08-21T04:37:28;100224.00;;;19.80
4421;BMP180;11824;51.178;13.546;2022-08-21T04:39:59;100233.00;;;19.80
4421;BMP180;11824;51.178;13.546;2022-08-21T04:42:29;100234.00;;;19.80
4421;BMP180;11824;51.178;13.546;2022-08-21T04:44:59;100228.00;;;19.80
4421;BMP180;11824;51.178;13.546;2022-08-21T04:47:29;100233.00;;;19.90
4421;BMP180;11824;51.178;13.546;2022-08-21T04:50:19;100232.00;;;19.90
4421;BMP180;11824;51.178;13.546;2022-08-21T04:52:49;100234.00;;;19.90
4421;BMP180;11824;51.178;13.546;2022-08-21T04:55:20;100226.00;;;19.90
4421;BMP180;11824;51.178;13.546;2022-08-21T04:57:52;100234.00;;;19.90
4421;BMP180;11824;51.178;13.546;2022-08-21T05:00:23;100232.00;;;20.00
4421;BMP180;11824;51.178;13.546;2022-08-21T05:02:54;100235.00;;;20.00
4421;BMP180;11824;51.178;13.546;2022-08-21T05:05:34;100237.00;;;20.00
4421;BMP180;11824;51.178;13.546;2022-08-21T05:08:07;100239.00;;;20.00
4421;BMP180;11824;51.178;13.546;2022-08-21T05:10:39;100245.00;;;20.00
4421;BMP180;11824;51.178;13.546;2022-08-21T05:13:08;100249.00;;;20.00
4421;BMP180;11824;51.178;13.546;2022-08-21T05:15:38;100255.00;;;20.00
4421;BMP180;11824;51.178;13.546;2022-08-21T05:18:09;100257.00;;;20.10
4421;BMP180;11824;51.178;13.546;2022-08-21T05:20:48;100265.00;;;20.10
4421;BMP180;11824;51.178;13.546;2022-08-21T05:23:19;100275.00;;;20.10
4421;BMP180;11824;51.178;13.546;2022-08-21T05:25:50;100272.00;;;20.20
4421;BMP180;11824;51.178;13.546;2022-08-21T05:28:20;100264.00;;;20.20
4421;BMP180;11824;51.178;13.546;2022-08-21T05:30:58;100260.00;;;20.20
4421;BMP180;11824;51.178;13.546;2022-08-21T05:33:40;100259.00;;;20.20
4421;BMP180;11824;51.178;13.546;2022-08-21T05:36:10;100266.00;;;20.30
4421;BMP180;11824;51.178;13.546;2022-08-21T05:38:42;100264.00;;;20.30
4421;BMP180;11824;51.178;13.546;2022-08-21T05:41:31;100267.00;;;20.40
4421;BMP180;11824;51.178;13.546;2022-08-21T05:44:02;100269.00;;;20.40
4421;BMP180;11824;51.178;13.546;2022-08-21T05:46:38;100266.00;;;20.40
4421;BMP180;11824;51.178;13.546;2022-08-21T05:49:16;100261.00;;;20.50
4421;BMP180;11824;51.178;13.546;2022-08-21T05:52:10;100256.00;;;20.50
4421;BMP180;11824;51.178;13.546;2022-08-21T06:51:14;100268.00;;;21.50
4421;BMP180;11824;51.178;13.546;2022-08-21T07:17:19;100270.00;;;22.10
4421;BMP180;11824;51.178;13.546;2022-08-21T07:19:55;100277.00;;;22.20
4421;BMP180;11824;51.178;13.546;2022-08-21T07:22:40;100275.00;;;22.20
4421;BMP180;11824;51.178;13.546;2022-08-21T07:25:09;100276.00;;;22.30
4421;BMP180;11824;51.178;13.546;2022-08-21T07:27:40;100274.00;;;22.40
4421;BMP180;11824;51.178;13.546;2022-08-21T07:30:10;100266.00;;;22.40
4421;BMP180;11824;51.178;13.546;2022-08-21T07:32:43;100278.00;;;22.40
4421;BMP180;11824;51.178;13.546;2022-08-21T07:35:16;100273.00;;;22.50
4421;BMP180;11824;51.178;13.546;2022-08-21T07:37:49;100283.00;;;22.50
4421;BMP180;11824;51.178;13.546;2022-08-21T07:40:19;100284.00;;;22.40
4421;BMP180;11824;51.178;13.546;2022-08-21T07:42:53;100284.00;;;22.50
4421;BMP180;11824;51.178;13.546;2022-08-21T07:45:25;100277.00;;;22.50
4421;BMP180;11824;51.178;13.546;2022-08-21T07:48:26;100282.00;;;22.50
4421;BMP180;11824;51.178;13.546;2022-08-21T07:51:04;100268.00;;;22.60
4421;BMP180;11824;51.178;13.546;2022-08-21T07:53:53;100270.00;;;22.70
4421;BMP180;11824;51.178;13.546;2022-08-21T07:57:02;100272.00;;;22.80
4421;BMP180;11824;51.178;13.546;2022-08-21T08:00:09;100271.00;;;22.90
4421;BMP180;11824;51.178;13.546;2022-08-21T08:02:56;100274.00;;;22.90
4421;BMP180;11824;51.178;13.546;2022-08-21T08:05:29;100286.00;;;23.00
4421;BMP180;11824;51.178;13.546;2022-08-21T08:07:59;100276.00;;;23.00
4421;BMP180;11824;51.178;13.546;2022-08-21T08:10:27;100283.00;;;23.00
4421;BMP180;11824;51.178;13.546;2022-08-21T08:12:56;100281.00;;;23.00
4421;BMP180;11824;51.178;13.546;2022-08-21T08:15:26;100285.00;;;23.00
4421;BMP180;11824;51.178;13.546;2022-08-21T08:18:04;100278.00;;;22.90
4421;BMP180;11824;51.178;13.546;2022-08-21T08:20:38;100283.00;;;22.90
4421;BMP180;11824;51.178;13.546;2022-08-21T08:23:19;100289.00;;;22.90
4421;BMP180;11824;51.178;13.546;2022-08-21T08:25:57;100288.00;;;22.90
4421;BMP180;11824;51.178;13.546;2022-08-21T08:28:43;100292.00;;;22.90
4421;BMP180;11824;51.178;13.546;2022-08-21T08:31:29;100296.00;;;23.00
4421;BMP180;11824;51.178;13.546;2022-08-21T08:34:31;100301.00;;;23.10
4421;BMP180;11824;51.178;13.546;2022-08-21T08:37:14;100302.00;;;23.20
4421;BMP180;11824;51.178;13.546;2022-08-21T08:39:48;100309.00;;;23.30
4421;BMP180;11824;51.178;13.546;2022-08-21T08:42:38;100299.00;;;23.40
4421;BMP180;11824;51.178;13.546;2022-08-21T08:45:11;100308.00;;;23.50
4421;BMP180;11824;51.178;13.546;2022-08-21T08:47:42;100309.00;;;23.60
4421;BMP180;11824;51.178;13.546;2022-08-21T08:50:24;100310.00;;;23.70
4421;BMP180;11824;51.178;13.546;2022-08-21T08:53:14;100317.00;;;23.70
4421;BMP180;11824;51.178;13.546;2022-08-21T08:55:53;100314.00;;;23.80
4421;BMP180;11824;51.178;13.546;2022-08-21T08:58:34;100309.00;;;23.90
4421;BMP180;11824;51.178;13.546;2022-08-21T09:01:20;100308.00;;;23.90
4421;BMP180;11824;51.178;13.546;2022-08-21T09:04:16;100302.00;;;23.90
4421;BMP180;11824;51.178;13.546;2022-08-21T09:07:09;100307.00;;;24.00
4421;BMP180;11824;51.178;13.546;2022-08-21T09:10:25;100312.00;;;24.00
4421;BMP180;11824;51.178;13.546;2022-08-21T09:13:11;100312.00;;;24.10
4421;BMP180;11824;51.178;13.546;2022-08-21T09:16:11;100318.00;;;24.20
4421;BMP180;11824;51.178;13.546;2022-08-21T09:19:22;100310.00;;;24.20
4421;BMP180;11824;51.178;13.546;2022-08-21T09:22:06;100303.00;;;24.20
4421;BMP180;11824;51.178;13.546;2022-08-21T09:25:37;100299.00;;;24.20
4421;BMP180;11824;51.178;13.546;2022-08-21T09:31:44;100296.00;;;24.30
4421;BMP180;11824;51.178;13.546;2022-08-21T09:34:31;100295.00;;;24.30
4421;BMP180;11824;51.178;13.546;2022-08-21T09:37:17;100294.00;;;24.40
4421;BMP180;11824;51.178;13.546;2022-08-21T09:39:54;100289.00;;;24.40
4421;BMP180;11824;51.178;13.546;2022-08-21T09:42:27;100296.00;;;24.40
4421;BMP180;11824;51.178;13.546;2022-08-21T09:45:11;100285.00;;;24.30
4421;BMP180;11824;51.178;13.546;2022-08-21T09:47:42;100283.00;;;24.30
4421;BMP180;11824;51.178;13.546;2022-08-21T09:50:15;100284.00;;;24.30
4421;BMP180;11824;51.178;13.546;2022-08-21T09:52:46;100280.00;;;24.40
4421;BMP180;11824;51.178;13.546;2022-08-21T09:55:30;100281.00;;;24.40
4421;BMP180;11824;51.178;13.546;2022-08-21T09:58:19;100277.00;;;24.50
4421;BMP180;11824;51.178;13.546;2022-08-21T10:00:58;100284.00;;;24.50
4421;BMP180;11824;51.178;13.546;2022-08-21T10:03:27;100286.00;;;24.50
4421;BMP180;11824;51.178;13.546;2022-08-21T10:06:01;100279.00;;;24.60
4421;BMP180;11824;51.178;13.546;2022-08-21T10:08:38;100281.00;;;24.70
4421;BMP180;11824;51.178;13.546;2022-08-21T10:11:10;100276.00;;;24.70
4421;BMP180;11824;51.178;13.546;2022-08-21T10:13:50;100281.00;;;24.70
4421;BMP180;11824;51.178;13.546;2022-08-21T10:16:30;100284.00;;;24.80
4421;BMP180;11824;51.178;13.546;2022-08-21T10:19:11;100275.00;;;24.80
4421;BMP180;11824;51.178;13.546;2022-08-21T10:22:00;100281.00;;;24.80
4421;BMP180;11824;51.178;13.546;2022-08-21T10:24:37;100276.00;;;24.90
4421;BMP180;11824;51.178;13.546;2022-08-21T10:27:16;100276.00;;;24.90
4421;BMP180;11824;51.178;13.546;2022-08-21T10:29:51;100280.00;;;24.90
4421;BMP180;11824;51.178;13.546;2022-08-21T10:32:35;100279.00;;;24.90
4421;BMP180;11824;51.178;13.546;2022-08-21T10:35:13;100286.00;;;24.90
4421;BMP180;11824;51.178;13.546;2022-08-21T10:37:57;100282.00;;;24.80
4421;BMP180;11824;51.178;13.546;2022-08-21T10:40:31;100283.00;;;24.90
4421;BMP180;11824;51.178;13.546;2022-08-21T10:43:15;100292.00;;;24.90
4421;BMP180;11824;51.178;13.546;2022-08-21T10:45:55;100288.00;;;24.90
4421;BMP180;11824;51.178;13.546;2022-08-21T10:48:29;100284.00;;;24.90
4421;BMP180;11824;51.178;13.546;2022-08-21T10:51:10;100288.00;;;24.90
4421;BMP180;11824;51.178;13.546;2022-08-21T10:53:57;100289.00;;;25.00
4421;BMP180;11824;51.178;13.546;2022-08-21T10:56:31;100288.00;;;25.00
4421;BMP180;11824;51.178;13.546;2022-08-21T10:59:09;100284.00;;;25.00
4421;BMP180;11824;51.178;13.546;2022-08-21T11:01:49;100291.00;;;25.00
4421;BMP180;11824;51.178;13.546;2022-08-21T11:04:28;100282.00;;;25.00
4421;BMP180;11824;51.178;13.546;2022-08-21T11:07:46;100288.00;;;25.00
4421;BMP180;11824;51.178;13.546;2022-08-21T11:10:42;100280.00;;;25.00
4421;BMP180;11824;51.178;13.546;2022-08-21T11:13:42;100287.00;;;25.10
4421;BMP180;11824;51.178;13.546;2022-08-21T11:16:36;100278.00;;;25.20
4421;BMP180;11824;51.178;13.546;2022-08-21T11:19:35;100289.00;;;25.20
4421;BMP180;11824;51.178;13.546;2022-08-21T11:22:43;100282.00;;;25.20
4421;BMP180;11824;51.178;13.546;2022-08-21T11:25:44;100285.00;;;25.30
4421;BMP180;11824;51.178;13.546;2022-08-21T11:28:37;100288.00;;;25.30
4421;BMP180;11824;51.178;13.546;2022-08-21T11:31:44;100286.00;;;25.40
4421;BMP180;11824;51.178;13.546;2022-08-21T11:34:50;100282.00;;;25.60
4421;BMP180;11824;51.178;13.546;2022-08-21T11:37:58;100285.00;;;25.70
4421;BMP180;11824;51.178;13.546;2022-08-21T11:41:02;100282.00;;;25.70
4421;BMP180;11824;51.178;13.546;2022-08-21T11:43:43;100279.00;;;25.80
4421;BMP180;11824;51.178;13.546;2022-08-21T11:46:53;100278.00;;;25.80
4421;BMP180;11824;51.178;13.546;2022-08-21T11:50:03;100287.00;;;25.80
4421;BMP180;11824;51.178;13.546;2022-08-21T11:53:09;100278.00;;;25.80
4421;BMP180;11824;51.178;13.546;2022-08-21T11:55:52;100277.00;;;25.80
4421;BMP180;11824;51.178;13.546;2022-08-21T11:58:32;100278.00;;;25.70
4421;BMP180;11824;51.178;13.546;2022-08-21T12:01:15;100269.00;;;25.70
4421;BMP180;11824;51.178;13.546;2022-08-21T12:04:00;100271.00;;;25.70
4421;BMP180;11824;51.178;13.546;2022-08-21T12:06:45;100271.00;;;25.80
4421;BMP180;11824;51.178;13.546;2022-08-21T12:09:38;100266.00;;;25.80
4421;BMP180;11824;51.178;13.546;2022-08-21T12:12:33;100266.00;;;25.80
4421;BMP180;11824;51.178;13.546;2022-08-21T12:15:36;100271.00;;;25.70
4421;BMP180;11824;51.178;13.546;2022-08-21T12:18:33;100267.00;;;25.70
4421;BMP180;11824;51.178;13.546;2022-08-21T12:21:25;100263.00;;;25.60
4421;BMP180;11824;51.178;13.546;2022-08-21T12:27:40;100265.00;;;25.60
4421;BMP180;11824;51.178;13.546;2022-08-21T12:30:22;100263.00;;;25.60
4421;BMP180;11824;51.178;13.546;2022-08-21T12:32:58;100267.00;;;25.60
4421;BMP180;11824;51.178;13.546;2022-08-21T12:35:39;100267.00;;;25.50
4421;BMP180;11824;51.178;13.546;2022-08-21T12:38:26;100257.00;;;25.50
4421;BMP180;11824;51.178;13.546;2022-08-21T12:41:07;100261.00;;;25.40
4421;BMP180;11824;51.178;13.546;2022-08-21T12:43:59;100262.00;;;25.30
4421;BMP180;11824;51.178;13.546;2022-08-21T12:46:39;100267.00;;;25.20
4421;BMP180;11824;51.178;13.546;2022-08-21T12:49:24;100257.00;;;25.10
4421;BMP180;11824;51.178;13.546;2022-08-21T12:52:21;100256.00;;;25.00
4421;BMP180;11824;51.178;13.546;2022-08-21T12:55:11;100257.00;;;24.90
4421;BMP180;11824;51.178;13.546;2022-08-21T12:58:15;100256.00;;;24.90
4421;BMP180;11824;51.178;13.546;2022-08-21T13:01:06;100259.00;;;24.80
4421;BMP180;11824;51.178;13.546;2022-08-21T13:03:46;100263.00;;;24.70
4421;BMP180;11824;51.178;13.546;2022-08-21T13:06:38;100250.00;;;24.70
4421;BMP180;11824;51.178;13.546;2022-08-21T13:09:10;100251.00;;;24.60
4421;BMP180;11824;51.178;13.546;2022-08-21T13:11:42;100238.00;;;24.60
4421;BMP180;11824;51.178;13.546;2022-08-21T13:14:36;100251.00;;;24.60
4421;BMP180;11824;51.178;13.546;2022-08-21T13:17:38;100248.00;;;24.60
4421;BMP180;11824;51.178;13.546;2022-08-21T13:20:32;100239.00;;;24.70
4421;BMP180;11824;51.178;13.546;2022-08-21T13:23:23;100239.00;;;24.70
4421;BMP180;11824;51.178;13.546;2022-08-21T13:26:21;100246.00;;;24.70
4421;BMP180;11824;51.178;13.546;2022-08-21T13:29:13;100243.00;;;24.70
4421;BMP180;11824;51.178;13.546;2022-08-21T13:31:53;100248.00;;;24.80
4421;BMP180;11824;51.178;13.546;2022-08-21T13:34:28;100247.00;;;24.80
4421;BMP180;11824;51.178;13.546;2022-08-21T13:37:00;100246.00;;;24.90
4421;BMP180;11824;51.178;13.546;2022-08-21T13:39:38;100253.00;;;24.90
4421;BMP180;11824;51.178;13.546;2022-08-21T13:42:20;100243.00;;;24.90
4421;BMP180;11824;51.178;13.546;2022-08-21T13:45:10;100244.00;;;25.00
4421;BMP180;11824;51.178;13.546;2022-08-21T13:48:00;100241.00;;;25.00
4421;BMP180;11824;51.178;13.546;2022-08-21T13:50:41;100240.00;;;25.00
4421;BMP180;11824;51.178;13.546;2022-08-21T13:53:46;100239.00;;;25.10
4421;BMP180;11824;51.178;13.546;2022-08-21T13:56:43;100248.00;;;25.20
4421;BMP180;11824;51.178;13.546;2022-08-21T13:59:28;100246.00;;;25.20
4421;BMP180;11824;51.178;13.546;2022-08-21T14:02:29;100248.00;;;25.30
4421;BMP180;11824;51.178;13.546;2022-08-21T14:05:06;100245.00;;;25.40
4421;BMP180;11824;51.178;13.546;2022-08-21T14:08:03;100242.00;;;25.50
4421;BMP180;11824;51.178;13.546;2022-08-21T14:10:52;100249.00;;;25.50
4421;BMP180;11824;51.178;13.546;2022-08-21T14:13:48;100253.00;;;25.60
4421;BMP180;11824;51.178;13.546;2022-08-21T14:16:41;100244.00;;;25.60
4421;BMP180;11824;51.178;13.546;2022-08-21T14:19:45;100247.00;;;25.60
4421;BMP180;11824;51.178;13.546;2022-08-21T14:22:49;100243.00;;;25.60
4421;BMP180;11824;51.178;13.546;2022-08-21T14:25:38;100239.00;;;25.50
4421;BMP180;11824;51.178;13.546;2022-08-21T14:28:24;100233.00;;;25.50
4421;BMP180;11824;51.178;13.546;2022-08-21T14:31:16;100224.00;;;25.50
4421;BMP180;11824;51.178;13.546;2022-08-21T14:33:46;100239.00;;;25.40
4421;BMP180;11824;51.178;13.546;2022-08-21T14:36:19;100223.00;;;25.30
4421;BMP180;11824;51.178;13.546;2022-08-21T14:38:48;100226.00;;;25.30
4421;BMP180;11824;51.178;13.546;2022-08-21T14:41:21;100226.00;;;25.20
4421;BMP180;11824;51.178;13.546;2022-08-21T14:43:51;100231.00;;;25.10
4421;BMP180;11824;51.178;13.546;2022-08-21T14:46:34;100229.00;;;25.00
4421;BMP180;11824;51.178;13.546;2022-08-21T14:49:25;100228.00;;;24.90
4421;BMP180;11824;51.178;13.546;2022-08-21T14:51:55;100229.00;;;24.80
4421;BMP180;11824;51.178;13.546;2022-08-21T14:54:27;100228.00;;;24.70
4421;BMP180;11824;51.178;13.546;2022-08-21T14:57:03;100231.00;;;24.60
4421;BMP180;11824;51.178;13.546;2022-08-21T14:59:36;100221.00;;;24.50
4421;BMP180;11824;51.178;13.546;2022-08-21T15:02:06;100230.00;;;24.50
4421;BMP180;11824;51.178;13.546;2022-08-21T15:04:40;100236.00;;;24.40
4421;BMP180;11824;51.178;13.546;2022-08-21T15:07:08;100229.00;;;24.30
4421;BMP180;11824;51.178;13.546;2022-08-21T15:09:37;100234.00;;;24.20
4421;BMP180;11824;51.178;13.546;2022-08-21T15:12:08;100224.00;;;24.20
4421;BMP180;11824;51.178;13.546;2022-08-21T15:14:39;100236.00;;;24.10
4421;BMP180;11824;51.178;13.546;2022-08-21T15:17:10;100227.00;;;24.00
4421;BMP180;11824;51.178;13.546;2022-08-21T15:19:39;100230.00;;;23.90
4421;BMP180;11824;51.178;13.546;2022-08-21T15:22:08;100222.00;;;23.90
4421;BMP180;11824;51.178;13.546;2022-08-21T15:24:45;100221.00;;;23.80
4421;BMP180;11824;51.178;13.546;2022-08-21T15:27:17;100233.00;;;23.70
4421;BMP180;11824;51.178;13.546;2022-08-21T15:29:47;100222.00;;;23.70
4421;BMP180;11824;51.178;13.546;2022-08-21T15:32:19;100215.00;;;23.60
4421;BMP180;11824;51.178;13.546;2022-08-21T15:34:49;100225.00;;;23.60
4421;BMP180;11824;51.178;13.546;2022-08-21T15:37:19;100225.00;;;23.60
4421;BMP180;11824;51.178;13.546;2022-08-21T15:39:48;100229.00;;;23.50
4421;BMP180;11824;51.178;13.546;2022-08-21T15:42:23;100229.00;;;23.50
4421;BMP180;11824;51.178;13.546;2022-08-21T15:44:55;100227.00;;;23.40
4421;BMP180;11824;51.178;13.546;2022-08-21T15:47:28;100218.00;;;23.40
4421;BMP180;11824;51.178;13.546;2022-08-21T15:50:01;100220.00;;;23.40
4421;BMP180;11824;51.178;13.546;2022-08-21T15:52:30;100230.00;;;23.30
4421;BMP180;11824;51.178;13.546;2022-08-21T15:55:01;100228.00;;;23.30
4421;BMP180;11824;51.178;13.546;2022-08-21T15:57:32;100222.00;;;23.30
4421;BMP180;11824;51.178;13.546;2022-08-21T16:00:11;100221.00;;;23.20
4421;BMP180;11824;51.178;13.546;2022-08-21T16:02:44;100227.00;;;23.20
4421;BMP180;11824;51.178;13.546;2022-08-21T16:05:17;100221.00;;;23.20
4421;BMP180;11824;51.178;13.546;2022-08-21T16:07:48;100220.00;;;23.20
4421;BMP180;11824;51.178;13.546;2022-08-21T16:10:19;100209.00;;;23.10
4421;BMP180;11824;51.178;13.546;2022-08-21T16:12:55;100210.00;;;23.10
4421;BMP180;11824;51.178;13.546;2022-08-21T16:15:26;100210.00;;;23.10
4421;BMP180;11824;51.178;13.546;2022-08-21T16:17:55;100219.00;;;23.00
4421;BMP180;11824;51.178;13.546;2022-08-21T16:20:26;100218.00;;;23.00
4421;BMP180;11824;51.178;13.546;2022-08-21T16:22:57;100217.00;;;23.00
4421;BMP180;11824;51.178;13.546;2022-08-21T16:25:27;100224.00;;;23.00